Time;durP1;ratioP1;P1;durP2;ratioP2;P2;SDS_P1;SDS_P2;PMS_P1;PMS_P2;Temp;Humidity;BMP_temperature;BMP_pressure;BME280_temperature;BME280_humidity;BME280_pressure;Samples;Min_cycle;Max_cycle;Signal;HPM_P1;HPM_P2
2023/07/14 00:01:34;;;;;;;5.93;2.33;;;20.10;70.50;;;;;;5073439;28;20449;-55
2023/07/14 00:04:01;;;;;;;4.27;2.30;;;20.10;70.60;;;;;;5073060;28;20475;-55
2023/07/14 00:06:28;;;;;;;4.10;2.00;;;20.10;70.80;;;;;;5073342;28;20449;-55
2023/07/14 00:08:55;;;;;;;3.20;2.00;;;20.10;71.00;;;;;;5073326;28;20464;-55
2023/07/14 00:11:23;;;;;;;4.63;2.40;;;20.10;70.80;;;;;;5073361;28;20455;-55
2023/07/14 00:13:51;;;;;;;2.20;2.00;;;20.10;70.80;;;;;;5073256;28;20461;-55
2023/07/14 00:16:21;;;;;;;3.53;2.50;;;20.00;71.00;;;;;;5073363;28;20452;-55
2023/07/14 00:18:50;;;;;;;2.90;2.17;;;20.00;71.30;;;;;;5073157;28;20457;-55
2023/07/14 00:21:18;;;;;;;4.50;2.60;;;20.00;71.40;;;;;;5073232;28;20481;-55
2023/07/14 00:23:46;;;;;;;3.57;1.77;;;20.00;71.70;;;;;;5073187;28;20465;-55
2023/07/14 00:26:15;;;;;;;5.60;2.50;;;19.90;72.30;;;;;;5073192;28;20811;-55
2023/07/14 00:28:43;;;;;;;5.83;2.40;;;19.90;72.20;;;;;;5073221;28;20456;-55
2023/07/14 00:31:13;;;;;;;3.97;2.60;;;19.90;72.60;;;;;;5072967;28;20952;-55
2023/07/14 00:33:40;;;;;;;3.27;2.10;;;20.00;72.30;;;;;;5073225;28;20500;-55
2023/07/14 00:36:08;;;;;;;4.97;2.50;;;20.00;72.00;;;;;;5073820;28;20448;-55
2023/07/14 00:38:35;;;;;;;11.93;3.20;;;19.90;72.30;;;;;;5072785;28;20946;-55
2023/07/14 00:41:03;;;;;;;5.07;2.70;;;19.90;73.00;;;;;;5073020;28;20974;-55
2023/07/14 00:43:31;;;;;;;3.43;3.13;;;19.90;73.40;;;;;;5072970;28;20500;-55
2023/07/14 00:45:58;;;;;;;5.40;2.63;;;19.90;73.30;;;;;;5072712;28;20943;-55
2023/07/14 00:48:29;;;;;;;6.63;2.17;;;19.90;73.80;;;;;;5072949;28;20449;-55
2023/07/14 00:50:59;;;;;;;6.50;2.67;;;19.80;74.10;;;;;;5073024;28;20425;-55
2023/07/14 00:53:33;;;;;;;9.40;3.00;;;19.80;74.20;;;;;;5072897;28;20479;-56
2023/07/14 00:56:18;;;;;;;2.67;2.30;;;19.80;74.10;;;;;;5073498;28;20479;-55
2023/07/14 00:58:49;;;;;;;7.87;3.10;;;19.80;74.20;;;;;;5072877;28;20441;-55
2023/07/14 01:01:21;;;;;;;7.80;2.50;;;19.90;74.40;;;;;;5073821;28;20471;-55
2023/07/14 01:03:51;;;;;;;6.00;2.33;;;19.90;74.20;;;;;;5072969;28;20468;-55
2023/07/14 01:06:21;;;;;;;10.57;3.03;;;19.90;74.80;;;;;;5075167;28;20448;-55
2023/07/14 01:08:53;;;;;;;10.50;3.27;;;19.90;75.30;;;;;;5076730;28;20429;-55
2023/07/14 01:11:23;;;;;;;8.63;3.00;;;19.90;74.30;;;;;;5076608;28;20440;-55
2023/07/14 01:13:50;;;;;;;7.30;2.90;;;20.00;73.90;;;;;;5076538;28;20475;-55
2023/07/14 01:16:18;;;;;;;6.80;3.13;;;20.00;73.60;;;;;;5076199;28;20443;-55
2023/07/14 01:18:46;;;;;;;7.50;2.67;;;20.00;73.50;;;;;;5076188;28;20475;-55
2023/07/14 01:21:13;;;;;;;6.50;2.83;;;20.00;73.40;;;;;;5076041;28;21058;-55
2023/07/14 01:23:56;;;;;;;8.17;2.83;;;20.00;73.30;;;;;;5076352;28;20525;-55
2023/07/14 01:26:56;;;;;;;8.13;2.53;;;20.00;73.30;;;;;;5075890;28;20839;-55
2023/07/14 01:29:24;;;;;;;6.50;2.93;;;20.00;73.20;;;;;;5040538;28;20977;-55
2023/07/14 01:31:52;;;;;;;6.63;2.70;;;20.00;73.40;;;;;;5075942;28;20547;-55
2023/07/14 01:34:19;;;;;;;6.83;2.20;;;20.00;73.40;;;;;;5076076;28;20849;-55
2023/07/14 01:36:48;;;;;;;6.33;3.03;;;20.00;73.20;;;;;;5075750;28;20480;-55
2023/07/14 01:39:15;;;;;;;11.47;2.60;;;20.00;73.40;;;;;;5075972;28;20502;-55
2023/07/14 01:41:42;;;;;;;4.40;2.63;;;19.90;73.20;;;;;;5075909;28;20710;-55
2023/07/14 01:44:17;;;;;;;8.00;3.13;;;19.90;73.40;;;;;;5075996;28;20464;-55
2023/07/14 01:46:46;;;;;;;9.77;3.13;;;19.90;73.60;;;;;;5075954;28;20451;-55
2023/07/14 01:49:34;;;;;;;8.73;2.70;;;19.90;73.60;;;;;;5075876;28;20444;-55
2023/07/14 01:52:02;;;;;;;4.67;2.23;;;19.80;73.00;;;;;;5075941;28;20429;-55
2023/07/14 01:54:33;;;;;;;5.03;2.27;;;19.80;73.30;;;;;;5075941;28;20468;-55
2023/07/14 01:57:04;;;;;;;8.90;3.07;;;19.80;73.00;;;;;;5075681;28;20427;-55
2023/07/14 01:59:34;;;;;;;9.20;3.13;;;19.80;73.40;;;;;;5075733;28;20487;-55
2023/07/14 02:02:04;;;;;;;8.63;3.17;;;19.80;73.00;;;;;;5075617;28;20480;-55
2023/07/14 02:04:34;;;;;;;10.27;2.47;;;19.80;72.80;;;;;;5075713;28;20974;-55
2023/07/14 02:07:02;;;;;;;5.63;2.73;;;19.80;72.70;;;;;;5076401;28;20453;-55
2023/07/14 02:09:31;;;;;;;11.47;3.30;;;19.80;72.80;;;;;;5075848;28;20570;-55
2023/07/14 02:11:59;;;;;;;7.93;2.33;;;19.80;72.70;;;;;;5075896;28;20510;-55
2023/07/14 02:14:30;;;;;;;8.20;2.53;;;19.80;73.00;;;;;;5075486;28;20530;-55
2023/07/14 02:17:03;;;;;;;5.60;2.70;;;19.70;73.00;;;;;;5075322;28;20452;-55
2023/07/14 02:19:31;;;;;;;5.17;2.17;;;19.70;73.10;;;;;;5074989;28;20475;-55
2023/07/14 02:21:59;;;;;;;4.90;2.90;;;19.70;73.10;;;;;;5075210;28;20943;-55
2023/07/14 02:24:28;;;;;;;6.47;2.60;;;19.80;73.30;;;;;;5075173;28;20477;-55
2023/07/14 02:27:00;;;;;;;5.50;2.67;;;19.70;73.40;;;;;;5075061;28;20451;-55
2023/07/14 02:29:26;;;;;;;10.83;3.20;;;19.70;73.30;;;;;;5075174;28;20440;-55
2023/07/14 02:31:58;;;;;;;6.07;2.70;;;19.70;73.30;;;;;;5075229;28;20441;-55
2023/07/14 02:34:31;;;;;;;6.30;2.90;;;19.70;73.00;;;;;;5074999;28;20465;-55
2023/07/14 02:37:00;;;;;;;9.63;2.70;;;19.70;73.40;;;;;;5075030;28;20490;-55
2023/07/14 02:39:32;;;;;;;7.70;2.07;;;19.60;73.70;;;;;;5074560;28;20981;-55
2023/07/14 02:42:00;;;;;;;7.20;2.70;;;19.60;73.50;;;;;;5075345;28;20510;-55
2023/07/14 02:44:31;;;;;;;3.20;2.40;;;19.60;73.60;;;;;;5074763;28;20564;-55
2023/07/14 02:47:01;;;;;;;3.43;2.33;;;19.60;74.60;;;;;;5074560;28;20903;-55
2023/07/14 02:49:29;;;;;;;6.03;2.27;;;19.60;73.80;;;;;;5074360;28;20954;-55
2023/07/14 02:51:55;;;;;;;5.70;2.80;;;19.60;73.90;;;;;;5074646;28;20440;-55
2023/07/14 02:54:23;;;;;;;4.07;2.40;;;19.50;73.90;;;;;;5074590;28;20498;-55
2023/07/14 02:56:51;;;;;;;4.67;2.10;;;19.50;74.20;;;;;;5074518;28;20453;-55
2023/07/14 02:59:18;;;;;;;4.50;2.20;;;19.50;74.40;;;;;;5074420;28;20449;-55
2023/07/14 03:01:45;;;;;;;7.40;2.60;;;19.50;74.40;;;;;;5073924;28;20899;-55
2023/07/14 03:04:12;;;;;;;4.67;2.70;;;19.50;74.30;;;;;;5074084;28;20472;-55
2023/07/14 03:06:40;;;;;;;4.57;2.40;;;19.50;74.20;;;;;;5074377;28;20502;-55
2023/07/14 03:09:07;;;;;;;5.23;2.73;;;19.50;74.50;;;;;;5074310;28;20452;-55
2023/07/14 03:11:34;;;;;;;10.23;2.70;;;19.50;74.60;;;;;;5074187;28;20444;-55
2023/07/14 03:14:02;;;;;;;6.50;3.17;;;19.50;74.70;;;;;;5074123;28;20508;-55
2023/07/14 03:16:29;;;;;;;9.10;3.53;;;19.50;74.60;;;;;;5073834;28;20456;-55
2023/07/14 03:18:56;;;;;;;9.43;3.50;;;19.50;74.70;;;;;;5073988;28;20457;-55
2023/07/14 03:21:24;;;;;;;12.07;2.83;;;19.50;74.50;;;;;;5073666;28;21058;-55
2023/07/14 03:23:52;;;;;;;10.70;3.07;;;19.40;74.70;;;;;;5074006;28;20495;-55
2023/07/14 03:26:19;;;;;;;8.03;2.70;;;19.30;74.80;;;;;;5073887;28;20444;-55
2023/07/14 03:28:45;;;;;;;8.93;2.87;;;19.30;74.60;;;;;;5073390;28;20444;-55
2023/07/14 03:31:12;;;;;;;9.87;2.60;;;19.20;74.50;;;;;;5073838;28;20445;-55
2023/07/14 03:33:40;;;;;;;5.60;2.60;;;19.10;74.50;;;;;;5067263;28;20461;-55
2023/07/14 03:36:10;;;;;;;7.70;2.83;;;19.10;74.70;;;;;;5061431;28;20818;-55
2023/07/14 03:38:39;;;;;;;7.30;2.90;;;19.00;74.90;;;;;;5073693;28;20965;-55
2023/07/14 03:41:07;;;;;;;4.37;2.73;;;19.00;75.30;;;;;;5073956;28;20484;-55
2023/07/14 03:43:34;;;;;;;7.43;2.80;;;19.00;75.70;;;;;;5073858;28;20469;-55
2023/07/14 03:46:01;;;;;;;11.00;3.33;;;18.90;75.70;;;;;;5073709;28;20453;-55
2023/07/14 03:48:28;;;;;;;4.73;3.07;;;18.90;76.20;;;;;;5073604;28;20815;-55
2023/07/14 03:51:00;;;;;;;8.77;3.10;;;18.90;76.50;;;;;;5073570;28;20468;-55
2023/07/14 03:53:27;;;;;;;8.03;3.20;;;18.90;76.60;;;;;;5073565;28;20468;-55
2023/07/14 03:55:53;;;;;;;9.70;2.80;;;18.90;76.90;;;;;;5073218;28;20953;-55
2023/07/14 03:58:21;;;;;;;10.60;3.17;;;18.90;76.90;;;;;;5073599;28;20480;-55
2023/07/14 04:00:48;;;;;;;6.80;2.30;;;18.90;77.00;;;;;;5073320;28;20477;-55
2023/07/14 04:03:15;;;;;;;7.60;2.67;;;18.90;77.00;;;;;;5073456;28;20473;-55
2023/07/14 04:05:45;;;;;;;5.83;2.43;;;18.90;77.30;;;;;;5073416;28;20484;-55
2023/07/14 04:08:12;;;;;;;6.63;2.73;;;18.80;77.30;;;;;;5073138;28;20968;-55
2023/07/14 04:10:39;;;;;;;4.20;2.30;;;18.90;77.60;;;;;;5073033;28;20449;-55
2023/07/14 04:13:05;;;;;;;4.90;2.67;;;18.90;77.70;;;;;;5072965;28;20982;-55
2023/07/14 04:15:33;;;;;;;6.53;2.80;;;18.90;78.40;;;;;;5073345;28;20946;-55
2023/07/14 04:18:00;;;;;;;3.93;2.60;;;18.80;77.90;;;;;;5073191;28;20448;-55
2023/07/14 04:20:27;;;;;;;5.23;2.63;;;18.80;77.70;;;;;;5072878;28;20455;-55
2023/07/14 04:22:53;;;;;;;7.23;2.73;;;18.80;77.80;;;;;;5073067;28;20488;-55
2023/07/14 04:25:20;;;;;;;4.43;2.50;;;18.80;78.00;;;;;;5073182;28;20448;-55
2023/07/14 04:27:47;;;;;;;6.83;2.60;;;18.80;78.30;;;;;;5073550;28;20498;-55
2023/07/14 04:30:13;;;;;;;2.63;2.20;;;18.80;78.40;;;;;;5073353;28;20815;-55
2023/07/14 04:32:43;;;;;;;10.50;2.60;;;18.80;78.60;;;;;;5073628;28;20472;-55
2023/07/14 04:35:09;;;;;;;5.70;2.73;;;18.80;78.70;;;;;;5073584;28;20452;-55
2023/07/14 04:37:36;;;;;;;3.33;2.20;;;18.80;78.70;;;;;;5073428;28;20530;-55
2023/07/14 04:40:06;;;;;;;4.20;2.50;;;18.80;78.30;;;;;;5073530;28;20445;-55
2023/07/14 04:42:33;;;;;;;6.07;2.77;;;18.80;78.70;;;;;;5077314;28;21017;-54
2023/07/14 04:44:59;;;;;;;6.23;2.50;;;18.80;79.00;;;;;;5077685;28;20942;-55
2023/07/14 04:47:26;;;;;;;3.67;2.30;;;18.80;78.90;;;;;;5077408;28;20455;-55
2023/07/14 04:49:54;;;;;;;4.17;2.53;;;18.80;78.80;;;;;;5077207;28;20858;-55
2023/07/14 04:52:21;;;;;;;3.83;2.10;;;18.90;78.70;;;;;;5077764;28;20440;-55
2023/07/14 04:54:48;;;;;;;4.93;2.13;;;18.90;78.10;;;;;;5077031;28;20808;-55
2023/07/14 04:57:15;;;;;;;5.60;2.57;;;19.00;78.20;;;;;;5076958;28;20456;-55
2023/07/14 04:59:43;;;;;;;6.40;2.70;;;19.00;78.40;;;;;;5076629;28;20988;-55
2023/07/14 05:02:09;;;;;;;5.23;2.10;;;19.00;78.60;;;;;;5076769;28;20614;-55
2023/07/14 05:04:42;;;;;;;6.10;2.10;;;19.10;78.20;;;;;;5076502;28;20464;-55
2023/07/14 05:07:10;;;;;;;9.00;2.50;;;19.10;78.30;;;;;;5076816;28;20512;-55
2023/07/14 05:09:38;;;;;;;4.00;2.53;;;19.20;78.10;;;;;;5076790;28;20444;-55
2023/07/14 05:12:06;;;;;;;13.83;2.73;;;19.10;77.70;;;;;;5076724;28;20453;-55
2023/07/14 05:14:33;;;;;;;8.60;3.40;;;19.20;77.50;;;;;;5076330;28;20970;-55
2023/07/14 05:17:00;;;;;;;8.67;2.83;;;19.20;77.40;;;;;;5076333;28;20820;-55
2023/07/14 05:19:28;;;;;;;7.80;2.97;;;19.20;77.10;;;;;;5076145;28;20460;-55
2023/07/14 05:21:54;;;;;;;7.10;3.37;;;19.20;77.30;;;;;;5076393;28;20756;-55
2023/07/14 05:24:22;;;;;;;7.80;2.20;;;19.30;77.50;;;;;;5076404;28;20472;-55
2023/07/14 05:26:49;;;;;;;9.60;2.70;;;19.30;77.20;;;;;;5076395;28;20501;-55
2023/07/14 05:29:16;;;;;;;5.50;2.30;;;19.30;77.10;;;;;;5076424;28;20440;-55
2023/07/14 05:31:43;;;;;;;9.13;2.60;;;19.30;77.70;;;;;;5077026;28;20443;-55
2023/07/14 05:34:09;;;;;;;12.90;3.03;;;19.30;77.20;;;;;;5079275;28;20836;-56
2023/07/14 05:36:38;;;;;;;9.27;3.07;;;19.40;76.90;;;;;;5078185;28;20453;-55
2023/07/14 05:39:04;;;;;;;9.37;2.50;;;19.40;76.80;;;;;;5077490;28;20475;-55
2023/07/14 05:41:32;;;;;;;7.47;3.10;;;19.40;76.90;;;;;;5077713;28;20484;-55
2023/07/14 05:43:59;;;;;;;5.73;2.87;;;19.50;76.90;;;;;;5076161;28;20460;-55
2023/07/14 05:46:26;;;;;;;11.80;3.80;;;19.60;78.10;;;;;;5075616;28;20957;-55
2023/07/14 05:48:52;;;;;;;8.23;2.60;;;19.60;78.70;;;;;;5075881;28;20459;-55
2023/07/14 05:51:19;;;;;;;14.93;3.30;;;19.70;79.10;;;;;;5075119;28;20909;-55
2023/07/14 05:53:46;;;;;;;7.17;2.90;;;19.70;78.60;;;;;;5075817;28;20473;-55
2023/07/14 05:56:12;;;;;;;14.87;2.73;;;19.80;78.70;;;;;;5075736;28;20447;-55
2023/07/14 05:58:41;;;;;;;10.20;3.20;;;19.90;77.50;;;;;;5075413;28;20964;-55
2023/07/14 06:01:08;;;;;;;14.60;2.93;;;20.00;76.30;;;;;;5075663;28;20448;-55
2023/07/14 06:03:34;;;;;;;8.90;2.93;;;20.10;76.80;;;;;;5075470;28;20954;-55
2023/07/14 06:06:05;;;;;;;11.00;2.83;;;20.20;76.10;;;;;;5073512;28;20460;-55
2023/07/14 06:08:32;;;;;;;9.50;3.30;;;20.20;75.20;;;;;;5073820;28;20437;-55
2023/07/14 06:10:59;;;;;;;7.10;2.40;;;20.30;75.00;;;;;;5075417;28;20484;-55
2023/07/14 06:13:25;;;;;;;11.83;2.57;;;20.50;73.80;;;;;;5055820;28;20482;-55
2023/07/14 06:15:53;;;;;;;5.60;2.53;;;20.50;72.30;;;;;;5055044;28;20818;-55
2023/07/14 06:18:20;;;;;;;6.50;2.60;;;20.60;71.80;;;;;;5055189;28;20890;-55
2023/07/14 06:20:47;;;;;;;6.30;2.90;;;20.70;72.20;;;;;;5054982;28;20430;-55
2023/07/14 06:23:14;;;;;;;12.20;3.03;;;20.80;70.80;;;;;;5054743;28;21007;-55
2023/07/14 06:25:41;;;;;;;8.67;2.50;;;20.90;70.20;;;;;;5054804;28;20974;-55
2023/07/14 06:28:08;;;;;;;7.27;2.60;;;20.90;70.40;;;;;;5055414;28;20441;-55
2023/07/14 06:30:36;;;;;;;8.17;2.77;;;21.00;70.40;;;;;;5055101;28;20449;-55
2023/07/14 06:33:04;;;;;;;10.60;2.77;;;21.10;68.90;;;;;;5055838;28;20535;-55
2023/07/14 06:35:32;;;;;;;5.80;2.40;;;21.10;68.80;;;;;;5054659;28;20828;-55
2023/07/14 06:37:59;;;;;;;8.60;2.10;;;21.20;68.80;;;;;;5054929;28;20453;-55
2023/07/14 06:40:26;;;;;;;6.27;2.93;;;21.30;68.60;;;;;;5054869;28;20461;-55
2023/07/14 06:42:54;;;;;;;5.20;2.40;;;21.50;69.30;;;;;;5054707;28;20493;-56
2023/07/14 06:45:20;;;;;;;8.70;2.30;;;21.60;67.20;;;;;;5054886;28;20453;-55
2023/07/14 06:47:47;;;;;;;6.20;2.50;;;21.70;65.10;;;;;;5054957;28;20872;-55
2023/07/14 06:50:15;;;;;;;12.30;2.80;;;21.80;64.20;;;;;;5054593;28;20880;-55
2023/07/14 06:52:42;;;;;;;10.90;3.03;;;21.90;64.20;;;;;;5054429;28;20994;-55
2023/07/14 06:55:10;;;;;;;8.47;3.30;;;22.00;63.20;;;;;;5054634;28;20480;-55
2023/07/14 06:57:36;;;;;;;4.33;2.07;;;22.20;62.70;;;;;;5054352;28;20445;-55
2023/07/14 07:00:05;;;;;;;8.83;2.23;;;22.40;62.30;;;;;;5054699;28;20454;-55
2023/07/14 07:02:32;;;;;;;3.40;2.00;;;22.50;61.50;;;;;;5053833;28;20488;-55
2023/07/14 07:04:58;;;;;;;5.73;2.13;;;22.70;60.00;;;;;;5054056;28;20457;-55
2023/07/14 07:07:26;;;;;;;8.50;2.10;;;22.80;59.50;;;;;;5054524;28;20449;-56
2023/07/14 07:09:55;;;;;;;2.23;1.70;;;22.90;59.40;;;;;;5054333;28;20446;-55
2023/07/14 07:12:22;;;;;;;4.80;2.20;;;23.10;58.50;;;;;;5053983;28;20901;-55
2023/07/14 07:14:49;;;;;;;7.80;2.80;;;23.30;58.30;;;;;;5054391;28;20450;-55
2023/07/14 07:17:16;;;;;;;10.07;2.70;;;23.50;58.50;;;;;;5054914;28;20461;-55
2023/07/14 07:19:42;;;;;;;10.67;2.40;;;23.80;58.60;;;;;;5070028;28;20459;-56
2023/07/14 07:22:10;;;;;;;5.73;2.50;;;23.90;57.70;;;;;;5074071;28;20558;-56
2023/07/14 07:24:38;;;;;;;11.97;2.70;;;24.10;57.70;;;;;;5073524;28;20853;-56
2023/07/14 07:27:06;;;;;;;6.27;2.97;;;24.30;57.60;;;;;;5074023;28;20451;-56
2023/07/14 07:29:32;;;;;;;6.93;2.53;;;24.60;57.60;;;;;;5074024;28;20448;-56
2023/07/14 07:31:59;;;;;;;10.63;2.37;;;24.70;57.50;;;;;;5073988;28;20449;-55
2023/07/14 07:34:26;;;;;;;4.80;2.20;;;24.80;56.40;;;;;;5073841;28;20468;-56
2023/07/14 07:36:52;;;;;;;5.90;2.67;;;24.90;55.50;;;;;;5073910;28;20453;-56
2023/07/14 07:39:19;;;;;;;5.10;2.90;;;25.10;55.00;;;;;;5073884;28;20449;-56
2023/07/14 07:41:47;;;;;;;6.77;2.30;;;25.20;53.70;;;;;;5073965;28;20444;-56
2023/07/14 07:44:14;;;;;;;5.07;2.43;;;25.20;52.50;;;;;;5073542;28;20836;-55
2023/07/14 07:46:40;;;;;;;6.13;2.40;;;25.40;52.30;;;;;;5073901;28;20453;-55
2023/07/14 07:49:07;;;;;;;10.10;2.43;;;25.50;51.40;;;;;;5073779;28;20459;-55
2023/07/14 07:51:34;;;;;;;5.17;2.30;;;25.70;51.60;;;;;;5073841;28;20472;-55
2023/07/14 07:54:01;;;;;;;4.60;2.03;;;25.80;50.90;;;;;;5073465;28;20966;-55
2023/07/14 07:56:27;;;;;;;5.73;2.47;;;25.80;50.60;;;;;;5073623;28;20448;-55
2023/07/14 07:58:56;;;;;;;6.90;2.40;;;25.80;50.50;;;;;;5073556;28;20501;-55
2023/07/14 08:01:24;;;;;;;3.60;2.13;;;25.90;50.60;;;;;;5073635;28;20451;-55
2023/07/14 08:03:51;;;;;;;5.07;2.70;;;25.90;50.40;;;;;;5073383;28;20496;-55
2023/07/14 08:06:19;;;;;;;6.47;2.43;;;25.90;50.00;;;;;;5073600;28;20532;-55
2023/07/14 08:08:46;;;;;;;3.60;2.10;;;25.90;50.20;;;;;;5074077;28;20491;-55
2023/07/14 08:11:14;;;;;;;4.90;2.07;;;26.00;50.30;;;;;;5073189;28;20440;-56
2023/07/14 08:13:42;;;;;;;4.50;2.00;;;26.20;49.70;;;;;;5073354;28;20542;-55
2023/07/14 08:16:10;;;;;;;3.93;1.90;;;26.50;49.60;;;;;;5073135;28;20452;-56
2023/07/14 08:18:37;;;;;;;3.87;2.03;;;26.80;48.50;;;;;;5073364;28;20498;-56
2023/07/14 08:21:04;;;;;;;5.03;1.70;;;27.30;47.80;;;;;;5073112;28;20443;-56
2023/07/14 08:23:31;;;;;;;4.30;2.43;;;27.60;47.40;;;;;;5073145;28;20496;-56
2023/07/14 08:26:00;;;;;;;4.00;2.20;;;27.90;47.10;;;;;;5072928;28;20818;-56
2023/07/14 08:28:27;;;;;;;5.40;1.97;;;28.10;45.80;;;;;;5073192;28;20460;-56
2023/07/14 08:30:56;;;;;;;2.70;1.70;;;28.20;45.00;;;;;;5073219;28;20809;-56
2023/07/14 08:33:25;;;;;;;3.43;2.53;;;28.20;44.40;;;;;;5073112;28;20492;-56
2023/07/14 08:35:52;;;;;;;6.10;1.90;;;28.20;44.10;;;;;;5073161;28;20484;-56
2023/07/14 08:38:19;;;;;;;3.60;1.73;;;28.30;44.00;;;;;;5072896;28;20973;-56
2023/07/14 08:40:51;;;;;;;3.07;1.70;;;28.40;44.30;;;;;;5072731;28;20878;-56
2023/07/14 08:43:31;;;;;;;4.03;1.80;;;28.60;43.70;;;;;;5073085;28;20488;-56
2023/07/14 08:46:04;;;;;;;3.97;1.70;;;28.80;42.20;;;;;;5073111;28;20429;-56
2023/07/14 08:48:37;;;;;;;5.47;2.00;;;29.00;41.40;;;;;;5073060;28;20425;-56
2023/07/14 08:51:19;;;;;;;3.60;2.07;;;29.10;41.30;;;;;;5073116;28;20444;-56
2023/07/14 08:53:50;;;;;;;2.33;1.70;;;29.30;41.00;;;;;;5056502;28;20461;-56
2023/07/14 08:56:18;;;;;;;8.00;2.13;;;29.50;39.90;;;;;;5052562;28;20465;-56
2023/07/14 08:58:46;;;;;;;7.70;2.17;;;29.70;40.00;;;;;;5052900;28;20454;-56
2023/07/14 09:01:24;;;;;;;2.70;1.90;;;29.90;39.10;;;;;;5052592;28;20834;-56
2023/07/14 09:03:57;;;;;;;4.00;2.10;;;30.00;38.40;;;;;;5052346;28;20946;-56
2023/07/14 09:06:30;;;;;;;2.77;1.70;;;30.10;37.80;;;;;;5052759;28;20438;-56
2023/07/14 09:08:57;;;;;;;6.17;2.50;;;30.20;38.90;;;;;;5053036;28;20479;-56
2023/07/14 09:11:36;;;;;;;4.20;1.60;;;30.20;38.00;;;;;;5052787;28;20449;-56
2023/07/14 09:14:14;;;;;;;5.10;2.30;;;30.10;37.30;;;;;;5052546;28;20552;-56
2023/07/14 09:16:52;;;;;;;2.70;1.80;;;30.10;38.30;;;;;;5052744;28;20441;-56
2023/07/14 09:19:33;;;;;;;4.67;2.00;;;30.10;39.00;;;;;;5052423;28;20453;-56
2023/07/14 09:22:08;;;;;;;6.83;2.37;;;30.30;39.00;;;;;;5052774;28;20430;-56
2023/07/14 09:24:42;;;;;;;2.83;2.50;;;30.30;37.90;;;;;;5052344;28;20456;-56
2023/07/14 09:27:18;;;;;;;2.97;1.83;;;30.50;38.50;;;;;;5054570;28;20428;-56
2023/07/14 09:29:47;;;;;;;3.00;2.10;;;30.70;38.00;;;;;;5056111;28;20451;-56
2023/07/14 09:32:34;;;;;;;6.30;2.07;;;30.90;36.90;;;;;;5056211;28;20449;-56
2023/07/14 09:35:09;;;;;;;4.67;2.37;;;31.10;36.50;;;;;;5056267;28;20422;-56
2023/07/14 09:37:43;;;;;;;3.10;2.00;;;31.40;36.30;;;;;;5056118;28;20437;-56
2023/07/14 09:40:18;;;;;;;5.37;2.17;;;31.40;35.20;;;;;;5056218;28;20438;-56
2023/07/14 09:42:49;;;;;;;2.73;2.13;;;31.40;35.00;;;;;;5055792;28;20487;-56
2023/07/14 09:45:19;;;;;;;3.57;2.67;;;31.40;35.50;;;;;;5055519;28;20931;-56
2023/07/14 09:47:48;;;;;;;3.70;2.50;;;31.30;35.40;;;;;;5055934;28;20457;-56
2023/07/14 09:50:19;;;;;;;3.43;2.20;;;31.40;35.60;;;;;;5056132;28;20449;-56
2023/07/14 09:52:54;;;;;;;2.80;2.10;;;31.50;36.40;;;;;;5055875;28;20472;-56
2023/07/14 09:55:21;;;;;;;3.50;2.50;;;31.60;36.10;;;;;;5056081;28;20471;-56
2023/07/14 09:57:53;;;;;;;7.87;2.90;;;31.80;36.20;;;;;;5055796;28;20920;-56
2023/07/14 10:00:24;;;;;;;8.67;2.90;;;31.70;35.00;;;;;;5055366;28;20934;-56
2023/07/14 10:02:58;;;;;;;5.70;2.00;;;31.40;34.10;;;;;;5055522;28;20491;-56
2023/07/14 10:05:36;;;;;;;7.10;3.20;;;31.10;35.70;;;;;;5055661;28;20516;-56
2023/07/14 10:08:22;;;;;;;10.80;2.40;;;30.70;35.90;;;;;;5055329;28;20995;-56
2023/07/14 10:10:49;;;;;;;4.17;2.57;;;30.50;36.70;;;;;;5055379;28;20945;-56
2023/07/14 10:13:19;;;;;;;5.83;2.67;;;30.50;37.10;;;;;;5055201;28;20885;-56
2023/07/14 10:15:54;;;;;;;3.37;2.50;;;30.90;36.60;;;;;;5055382;28;20495;-56
2023/07/14 10:18:21;;;;;;;4.10;2.13;;;31.20;37.00;;;;;;5055197;28;20954;-56
2023/07/14 10:21:00;;;;;;;3.20;2.27;;;31.70;36.40;;;;;;5055318;28;20483;-56
2023/07/14 10:23:27;;;;;;;7.13;2.87;;;32.00;35.40;;;;;;5055144;28;20514;-56
2023/07/14 10:25:55;;;;;;;5.07;2.73;;;32.00;34.30;;;;;;5055158;28;20959;-56
2023/07/14 10:28:27;;;;;;;9.03;3.03;;;31.80;34.50;;;;;;5054851;28;20448;-56
2023/07/14 10:31:02;;;;;;;5.23;2.43;;;31.70;35.40;;;;;;5054905;28;20907;-56
2023/07/14 10:33:40;;;;;;;5.13;2.40;;;31.70;34.70;;;;;;5055130;28;20496;-56
2023/07/14 10:36:13;;;;;;;6.87;2.37;;;31.70;34.60;;;;;;5055088;28;20429;-56
2023/07/14 10:38:45;;;;;;;3.70;2.40;;;31.60;33.50;;;;;;5054995;28;20433;-56
2023/07/14 10:41:12;;;;;;;3.20;2.50;;;31.50;33.80;;;;;;5054922;28;20440;-56
2023/07/14 10:43:45;;;;;;;5.70;3.00;;;31.40;35.00;;;;;;5054753;28;20481;-56
2023/07/14 10:46:15;;;;;;;5.30;3.00;;;31.20;34.50;;;;;;5054854;28;20472;-56
2023/07/14 10:48:47;;;;;;;5.13;2.80;;;31.20;33.40;;;;;;5054797;28;20494;-56
2023/07/14 10:51:35;;;;;;;4.50;2.73;;;31.40;33.50;;;;;;5055308;28;20434;-56
2023/07/14 10:54:06;;;;;;;3.20;2.70;;;31.70;33.80;;;;;;5054707;28;20464;-56
2023/07/14 10:56:38;;;;;;;5.10;2.83;;;32.20;33.20;;;;;;5054678;28;20813;-56
2023/07/14 10:59:15;;;;;;;3.60;2.70;;;32.90;31.80;;;;;;5054357;28;20911;-56
2023/07/14 11:01:52;;;;;;;7.70;2.77;;;33.80;29.50;;;;;;5054696;28;20436;-56
2023/07/14 11:04:29;;;;;;;2.63;2.27;;;34.80;28.00;;;;;;5054215;28;20495;-56
2023/07/14 11:06:57;;;;;;;5.30;2.90;;;35.70;27.80;;;;;;5054484;28;20436;-56
2023/07/14 11:09:25;;;;;;;4.87;2.53;;;36.70;25.90;;;;;;5054656;28;20449;-56
2023/07/14 11:12:03;;;;;;;3.70;2.63;;;37.70;24.30;;;;;;5054448;28;20445;-56
2023/07/14 11:14:35;;;;;;;3.05;2.83;;;38.50;23.40;;;;;;5054042;28;20700;-56
2023/07/14 11:17:11;;;;;;;2.85;2.53;;;39.30;22.10;;;;;;5054229;28;20560;-56
2023/07/14 11:20:00;;;;;;;4.32;2.85;;;39.10;21.80;;;;;;5053804;28;20214;-56
2023/07/14 11:22:43;;;;;;;3.17;2.63;;;38.60;22.30;;;;;;5054134;28;20183;-56
2023/07/14 11:25:17;;;;;;;6.43;2.83;;;38.60;23.40;;;;;;5054102;28;20186;-56
2023/07/14 11:27:52;;;;;;;3.17;2.63;;;39.00;21.90;;;;;;5054010;28;20195;-56
2023/07/14 11:30:24;;;;;;;2.83;2.10;;;39.50;21.60;;;;;;5054063;28;20190;-56
2023/07/14 11:32:58;;;;;;;3.42;2.10;;;40.30;20.70;;;;;;5053693;28;20227;-56
2023/07/14 11:35:32;;;;;;;4.20;2.60;;;40.30;20.80;;;;;;5053903;28;20191;-56
2023/07/14 11:38:17;;;;;;;2.35;2.15;;;40.80;21.50;;;;;;5054396;28;20258;-57
2023/07/14 11:40:45;;;;;;;4.97;2.10;;;41.60;20.90;;;;;;5053806;28;20267;-56
2023/07/14 11:43:18;;;;;;;4.50;2.10;;;42.30;19.20;;;;;;5053634;28;20598;-57
2023/07/14 11:45:48;;;;;;;3.55;2.15;;;42.90;18.20;;;;;;5053771;28;20191;-57
2023/07/14 11:48:24;;;;;;;3.65;2.55;;;43.40;17.20;;;;;;5053615;28;20252;-57
2023/07/14 11:51:08;;;;;;;4.82;2.88;;;43.90;17.70;;;;;;5053183;28;20220;-57
2023/07/14 11:53:40;;;;;;;3.33;2.63;;;43.70;17.60;;;;;;5053535;28;20589;-57
2023/07/14 11:56:24;;;;;;;3.25;2.00;;;43.40;17.70;;;;;;5053574;28;20535;-57
2023/07/14 11:59:04;;;;;;;3.50;2.38;;;43.30;17.30;;;;;;5054600;28;20206;-57
2023/07/14 12:01:31;;;;;;;4.47;2.42;;;42.90;18.60;;;;;;5053428;28;20649;-57
2023/07/14 12:04:21;;;;;;;3.75;2.33;;;42.30;19.50;;;;;;5052998;28;20230;-57
2023/07/14 12:06:50;;;;;;;4.78;1.95;;;42.40;19.90;;;;;;5053114;28;20598;-57
2023/07/14 12:09:19;;;;;;;6.32;2.50;;;42.70;18.30;;;;;;5053419;28;20209;-57
2023/07/14 12:11:54;;;;;;;6.75;2.38;;;43.20;17.70;;;;;;5053388;28;20226;-57
2023/07/14 12:14:48;;;;;;;3.55;2.25;;;43.70;16.60;;;;;;5053207;28;20218;-57
2023/07/14 12:17:47;;;;;;;3.10;2.70;;;44.10;15.70;;;;;;5053271;28;20237;-57
2023/07/14 12:20:44;;;;;;;6.03;2.40;;;43.70;16.00;;;;;;5052816;28;20206;-57
2023/07/14 12:23:16;;;;;;;4.10;2.47;;;42.70;16.60;;;;;;4991507;28;20295;-57
2023/07/14 12:25:50;;;;;;;4.55;2.67;;;41.90;17.20;;;;;;5040778;28;20205;-57
2023/07/14 12:28:25;;;;;;;6.07;3.10;;;41.90;18.00;;;;;;5053278;28;20190;-57
2023/07/14 12:30:52;;;;;;;3.00;2.70;;;41.60;17.50;;;;;;5053227;28;20190;-57
2023/07/14 12:33:21;;;;;;;3.92;2.88;;;40.90;17.80;;;;;;5053182;28;20253;-57
2023/07/14 12:35:49;;;;;;;4.05;2.78;;;40.10;18.80;;;;;;5053200;28;20202;-56
2023/07/14 12:38:19;;;;;;;6.47;2.95;;;39.70;20.20;;;;;;5054682;28;20226;-57
2023/07/14 12:40:50;;;;;;;3.50;3.20;;;40.00;20.10;;;;;;5054397;28;20726;-57
2023/07/14 12:43:33;;;;;;;5.72;2.60;;;40.90;19.80;;;;;;5053032;28;20229;-57
2023/07/14 12:46:02;;;;;;;4.13;3.58;;;41.90;17.10;;;;;;5053014;28;20222;-57
2023/07/14 12:48:31;;;;;;;3.60;2.35;;;41.90;17.40;;;;;;5052607;28;20198;-57
2023/07/14 12:50:59;;;;;;;4.30;2.80;;;41.90;18.50;;;;;;5053051;28;20206;-57
2023/07/14 12:53:31;;;;;;;3.60;2.88;;;42.00;18.80;;;;;;5052995;28;20230;-57
2023/07/14 12:56:07;;;;;;;3.53;3.22;;;42.00;17.00;;;;;;5052972;28;20244;-56
2023/07/14 12:58:34;;;;;;;3.25;2.95;;;42.20;16.70;;;;;;5052996;28;20536;-57
2023/07/14 13:01:01;;;;;;;3.50;2.72;;;42.70;16.60;;;;;;5053084;28;20264;-57